Mallaig, United Kingdom
Current Conditions -  °F | °C
As of 4:20 PM on Wednesday 26 Nov 2014 (Local Time) from EGEO Reporting Station
Few Clouds Few Clouds  
Wind Chill: 41°   Ceiling: Unl
Heat Index: 41°   Visibility: 6mi
Dew Point: 36°   Wind: 3mph
Humidity: 81%   Direction: 90°E
Pressure: 29.88"   Gusts: NA
Location:  56.97°N, 5.82°W
Report Text: EGEO 261620Z 09003KT 9999 FEW025 05/02 Q1012
Loading
Personal Weather Stations






























Interactive Weather Map New forecast layout! Learn more

10-Day Weather Forecast

Advertisements
Track Severe Weather on mobile